createdAt,value
2018-01-25T00:01:55.121Z,4.80
2018-01-25T00:04:24.422Z,4.80
2018-01-25T00:06:54.469Z,4.80
2018-01-25T00:09:22.826Z,4.80
2018-01-25T00:11:51.951Z,4.50
2018-01-25T00:14:20.335Z,4.50
2018-01-25T00:16:48.695Z,4.50
2018-01-25T00:19:17.088Z,4.60
2018-01-25T00:21:45.453Z,4.70
2018-01-25T00:24:14.053Z,4.80
2018-01-25T00:26:42.409Z,4.80
2018-01-25T00:29:10.773Z,4.80
2018-01-25T00:31:39.920Z,4.80
2018-01-25T00:34:08.277Z,4.80
2018-01-25T00:36:36.932Z,4.80
2018-01-25T00:39:06.063Z,4.70
2018-01-25T00:41:34.496Z,4.60
2018-01-25T00:44:03.613Z,4.60
2018-01-25T00:46:32.588Z,4.60
2018-01-25T00:49:01.744Z,4.60
2018-01-25T00:51:30.189Z,4.50
2018-01-25T00:53:58.590Z,4.50
2018-01-25T00:56:26.965Z,4.60
2018-01-25T00:58:55.537Z,4.50
2018-01-25T01:01:23.905Z,4.50
2018-01-25T01:03:53.993Z,4.50
2018-01-25T01:06:24.111Z,4.40
2018-01-25T01:08:52.791Z,4.40
2018-01-25T01:11:21.297Z,4.30
2018-01-25T01:13:50.813Z,4.30
2018-01-25T01:16:19.508Z,4.30
2018-01-25T01:18:47.874Z,4.20
2018-01-25T01:21:16.268Z,4.20
2018-01-25T01:23:44.652Z,4.30
2018-01-25T01:26:13.162Z,4.30
2018-01-25T01:28:41.644Z,4.30
2018-01-25T01:31:10.169Z,4.40
2018-01-25T01:33:38.983Z,4.40
2018-01-25T01:36:07.349Z,4.30
2018-01-25T01:38:35.713Z,4.40
2018-01-25T01:41:04.101Z,4.30
2018-01-25T01:43:32.472Z,4.30
2018-01-25T01:46:00.849Z,4.30
2018-01-25T01:48:29.240Z,4.20
2018-01-25T01:50:57.829Z,4.10
2018-01-25T01:53:26.189Z,4.10
2018-01-25T01:55:55.416Z,4.20
2018-01-25T01:58:24.717Z,3.90
2018-01-25T02:00:53.078Z,3.90
2018-01-25T02:03:21.480Z,3.80
2018-01-25T02:05:49.838Z,3.90
2018-01-25T02:08:18.268Z,3.90
2018-01-25T02:10:46.716Z,4.00
2018-01-25T02:13:15.081Z,4.10
2018-01-25T02:15:43.452Z,4.10
2018-01-25T02:18:11.813Z,4.00
2018-01-25T02:20:40.200Z,3.90
2018-01-25T02:23:08.561Z,3.90
2018-01-25T02:25:37.885Z,3.90
2018-01-25T02:28:06.244Z,3.90
2018-01-25T02:30:35.393Z,4.00
2018-01-25T02:33:03.781Z,4.00
2018-01-25T02:35:32.140Z,4.10
2018-01-25T02:38:00.516Z,4.10
2018-01-25T02:40:28.892Z,4.20
2018-01-25T02:42:57.457Z,4.30
2018-01-25T02:45:25.813Z,4.30
2018-01-25T02:47:54.938Z,4.40
2018-01-25T02:50:23.313Z,4.40
2018-01-25T02:52:51.693Z,4.50
2018-01-25T02:55:20.085Z,4.50
2018-01-25T02:57:48.444Z,4.50
2018-01-25T03:00:16.852Z,4.60
2018-01-25T03:02:45.209Z,4.60
2018-01-25T03:05:13.589Z,4.60
2018-01-25T03:07:41.965Z,4.60
2018-01-25T03:10:11.104Z,4.60
2018-01-25T03:12:39.485Z,4.60
2018-01-25T03:15:07.852Z,4.70
2018-01-25T03:17:36.266Z,4.80
2018-01-25T03:20:05.420Z,4.90
2018-01-25T03:22:33.801Z,4.90
2018-01-25T03:25:02.247Z,4.90
2018-01-25T03:27:31.339Z,5.00
2018-01-25T03:29:59.729Z,5.00
2018-01-25T03:32:28.090Z,5.00
2018-01-25T03:34:56.453Z,5.00
2018-01-25T03:37:25.633Z,5.00
2018-01-25T03:39:54.755Z,5.00
2018-01-25T03:42:23.139Z,5.00
2018-01-25T03:44:51.489Z,4.90
2018-01-25T03:47:20.638Z,4.90
2018-01-25T03:49:48.997Z,4.90
2018-01-25T03:52:17.367Z,4.90
2018-01-25T03:54:45.759Z,4.80
2018-01-25T03:57:14.116Z,4.90
2018-01-25T03:59:42.504Z,4.80
2018-01-25T04:02:10.860Z,4.70
2018-01-25T04:04:40.297Z,4.70
2018-01-25T04:07:08.657Z,4.70
2018-01-25T04:09:37.030Z,4.70
2018-01-25T04:12:05.412Z,4.80
2018-01-25T04:14:33.777Z,4.70
2018-01-25T04:17:02.921Z,4.70
2018-01-25T04:19:31.285Z,4.60
2018-01-25T04:21:59.737Z,4.70
2018-01-25T04:24:28.103Z,4.70
2018-01-25T04:26:57.235Z,4.70
2018-01-25T04:29:25.627Z,4.60
2018-01-25T04:31:54.016Z,4.70
2018-01-25T04:34:22.397Z,4.70
2018-01-25T04:36:50.754Z,4.80
2018-01-25T04:39:19.339Z,4.80
2018-01-25T04:41:47.720Z,4.80
2018-01-25T04:44:16.087Z,4.80
2018-01-25T04:46:44.471Z,4.80
2018-01-25T04:49:12.819Z,4.80
2018-01-25T04:51:41.965Z,4.80
2018-01-25T04:54:10.329Z,4.80
2018-01-25T04:56:38.740Z,4.70
2018-01-25T04:59:07.105Z,4.80
2018-01-25T05:01:35.464Z,4.80
2018-01-25T05:04:03.917Z,4.80
2018-01-25T05:06:32.278Z,4.70
2018-01-25T05:09:01.440Z,4.70
2018-01-25T05:11:29.800Z,4.70
2018-01-25T05:13:59.406Z,4.70
2018-01-25T05:16:27.773Z,4.70
2018-01-25T05:18:56.164Z,4.70
2018-01-25T05:21:24.565Z,4.70
2018-01-25T05:23:53.740Z,4.70
2018-01-25T05:26:22.128Z,4.70
2018-01-25T05:28:50.480Z,4.70
2018-01-25T05:31:19.075Z,4.70
2018-01-25T05:33:47.453Z,4.70
2018-01-25T05:36:15.832Z,4.70
2018-01-25T05:38:44.229Z,4.70
2018-01-25T05:41:12.620Z,4.70
2018-01-25T05:43:41.401Z,4.70
2018-01-25T05:46:09.764Z,4.70
2018-01-25T05:48:38.168Z,4.60
2018-01-25T05:51:06.551Z,4.60
2018-01-25T05:53:34.913Z,4.60
2018-01-25T05:56:03.469Z,4.60
2018-01-25T05:58:31.832Z,4.60
2018-01-25T06:01:00.196Z,4.50
2018-01-25T06:03:28.581Z,4.50
2018-01-25T06:05:57.928Z,4.50
2018-01-25T06:08:26.340Z,4.50
2018-01-25T06:10:55.658Z,4.40
2018-01-25T06:13:24.033Z,4.40
2018-01-25T06:15:52.419Z,4.40
2018-01-25T06:18:20.819Z,4.40
2018-01-25T06:20:49.220Z,4.40
2018-01-25T06:23:17.587Z,4.40
2018-01-25T06:25:45.959Z,4.40
2018-01-25T06:28:14.343Z,4.40
2018-01-25T06:30:42.704Z,4.40
2018-01-25T06:33:11.133Z,4.40
2018-01-25T06:35:39.496Z,4.30
2018-01-25T06:38:07.864Z,4.40
2018-01-25T06:40:36.250Z,4.30
2018-01-25T06:43:04.612Z,4.30
2018-01-25T06:45:33.272Z,4.20
2018-01-25T06:48:01.633Z,4.30
2018-01-25T06:50:29.992Z,4.20
2018-01-25T06:52:58.378Z,4.20
2018-01-25T06:55:27.512Z,4.20
2018-01-25T06:57:55.907Z,4.20
2018-01-25T07:00:24.261Z,4.20
2018-01-25T07:02:52.620Z,4.20
2018-01-25T07:05:21.760Z,4.30
2018-01-25T07:07:50.232Z,4.20
2018-01-25T07:10:18.897Z,4.30
2018-01-25T07:12:47.295Z,4.40
2018-01-25T07:15:15.656Z,4.40
2018-01-25T07:17:44.033Z,4.50
2018-01-25T07:20:12.388Z,4.80
2018-01-25T07:22:41.680Z,5.10
2018-01-25T07:25:10.819Z,5.30
2018-01-25T07:27:39.357Z,5.30
2018-01-25T07:30:08.508Z,5.60
2018-01-25T07:32:36.864Z,5.60
2018-01-25T07:35:05.394Z,5.70
2018-01-25T07:37:33.774Z,5.70
2018-01-25T07:40:02.967Z,5.80
2018-01-25T07:42:36.462Z,5.80
2018-01-25T07:45:04.824Z,6.00
2018-01-25T07:47:33.384Z,6.20
2018-01-25T07:50:01.737Z,6.50
2018-01-25T07:52:30.860Z,7.10
2018-01-25T07:54:59.244Z,7.10
2018-01-25T07:57:33.051Z,7.30
2018-01-25T08:00:01.467Z,7.60
2018-01-25T08:02:33.755Z,7.90
2018-01-25T08:05:03.299Z,8.60
2018-01-25T08:07:31.691Z,8.60
2018-01-25T08:10:00.056Z,9.00
2018-01-25T08:12:28.446Z,9.60
2018-01-25T08:14:56.812Z,10.10
2018-01-25T08:17:25.204Z,10.80
2018-01-25T08:19:53.610Z,11.50
2018-01-25T08:22:22.357Z,12.00
2018-01-25T08:24:50.742Z,12.70
2018-01-25T08:27:19.189Z,13.40
2018-01-25T08:29:48.338Z,14.50
2018-01-25T08:32:16.722Z,14.50
2018-01-25T08:34:45.142Z,14.90
2018-01-25T08:37:13.518Z,15.50
2018-01-25T08:39:41.898Z,16.20
2018-01-25T08:42:11.058Z,17.60
2018-01-25T08:44:39.430Z,17.60
2018-01-25T08:47:07.910Z,18.30
2018-01-25T08:49:36.465Z,18.90
2018-01-25T08:52:04.881Z,19.50
2018-01-25T08:54:33.289Z,19.90
2018-01-25T08:57:02.421Z,20.20
2018-01-25T08:59:31.014Z,20.20
2018-01-25T09:01:59.386Z,20.30
2018-01-25T09:04:27.769Z,20.50
2018-01-25T09:06:56.180Z,20.90
2018-01-25T09:09:25.308Z,21.60
2018-01-25T09:11:54.501Z,22.00
2018-01-25T09:14:23.638Z,22.70
2018-01-25T09:16:52.003Z,22.60
2018-01-25T09:19:20.393Z,23.20
2018-01-25T09:21:48.758Z,23.60
2018-01-25T09:24:17.206Z,24.00
2018-01-25T09:26:46.333Z,24.70
2018-01-25T09:29:14.705Z,24.70
2018-01-25T09:31:43.098Z,24.90
2018-01-25T09:34:11.465Z,25.10
2018-01-25T09:36:39.879Z,25.40
2018-01-25T09:39:08.245Z,25.50
2018-01-25T09:41:36.617Z,25.60
2018-01-25T09:44:05.009Z,25.80
2018-01-25T09:46:33.377Z,26.10
2018-01-25T09:49:02.061Z,26.40
2018-01-25T09:51:30.424Z,26.10
2018-01-25T09:53:58.787Z,26.00
2018-01-25T09:56:27.180Z,25.80
2018-01-25T09:58:55.549Z,26.00
2018-01-25T10:01:23.994Z,26.30
2018-01-25T10:03:52.365Z,26.00
2018-01-25T10:06:20.728Z,26.00
2018-01-25T10:08:49.109Z,26.20
2018-01-25T10:11:18.275Z,27.40
2018-01-25T10:13:46.862Z,27.30
2018-01-25T10:16:15.269Z,27.70
2018-01-25T10:18:43.648Z,28.20
2018-01-25T10:21:12.041Z,28.40
2018-01-25T10:23:40.421Z,28.80
2018-01-25T10:26:08.853Z,29.20
2018-01-25T10:28:37.226Z,29.40
2018-01-25T10:31:05.593Z,29.90
2018-01-25T10:33:33.994Z,30.00
2018-01-25T10:36:02.361Z,30.20
2018-01-25T10:38:31.053Z,30.10
2018-01-25T10:40:59.425Z,29.80
2018-01-25T10:43:27.795Z,29.50
2018-01-25T10:45:56.194Z,29.90
2018-01-25T10:48:24.561Z,30.10
2018-01-25T10:50:52.922Z,29.80
2018-01-25T10:53:21.314Z,30.10
2018-01-25T10:55:49.679Z,30.30
2018-01-25T10:58:18.063Z,30.20
2018-01-25T11:03:51.373Z,29.80
2018-01-25T11:06:19.969Z,29.80
2018-01-25T11:08:48.345Z,30.20
2018-01-25T11:11:16.721Z,30.50
2018-01-25T11:13:45.109Z,30.40
2018-01-25T11:16:13.476Z,30.40
2018-01-25T11:18:42.073Z,30.20
2018-01-25T11:21:10.439Z,30.30
2018-01-25T11:23:38.812Z,30.60
2018-01-25T11:26:07.201Z,30.80
2018-01-25T11:28:35.569Z,30.70
2018-01-25T11:31:04.161Z,30.60
2018-01-25T11:33:32.539Z,30.50
2018-01-25T11:36:00.915Z,30.60
2018-01-25T11:38:29.311Z,31.20
2018-01-25T11:40:57.713Z,31.30
2018-01-25T11:43:26.268Z,31.80
2018-01-25T11:45:54.640Z,31.90
2018-01-25T11:48:23.010Z,31.70
2018-01-25T11:50:51.417Z,31.10
2018-01-25T11:53:19.776Z,30.60
2018-01-25T11:55:48.205Z,29.60
2018-01-25T11:58:16.573Z,29.00
2018-01-25T12:00:44.938Z,28.50
2018-01-25T12:03:13.342Z,28.10
2018-01-25T12:05:41.709Z,27.90
2018-01-25T12:08:10.462Z,27.80
2018-01-25T12:10:38.826Z,27.70
2018-01-25T12:13:07.209Z,27.50
2018-01-25T12:15:35.612Z,27.00
2018-01-25T12:18:03.984Z,26.40
2018-01-25T12:20:32.662Z,25.70
2018-01-25T12:23:01.036Z,25.20
2018-01-25T12:25:29.524Z,24.70
2018-01-25T12:27:58.021Z,24.20
2018-01-25T12:30:26.394Z,23.60
2018-01-25T12:32:55.058Z,22.90
2018-01-25T12:35:23.421Z,22.50
2018-01-25T12:37:51.795Z,22.10
2018-01-25T12:40:20.205Z,21.60
2018-01-25T12:42:48.566Z,21.20
2018-01-25T12:45:16.954Z,20.80
2018-01-25T12:47:45.336Z,20.60
2018-01-25T12:50:13.762Z,20.50
2018-01-25T12:52:42.909Z,20.30
2018-01-25T12:55:11.308Z,20.20
2018-01-25T12:57:39.684Z,20.20
2018-01-25T13:00:08.377Z,20.30
2018-01-25T13:02:36.749Z,20.60
2018-01-25T13:05:05.183Z,21.00
2018-01-25T13:07:34.318Z,20.80
2018-01-25T13:10:02.693Z,20.80
2018-01-25T13:12:31.084Z,20.60
2018-01-25T13:14:59.453Z,20.40
2018-01-25T13:17:28.181Z,20.20
2018-01-25T13:19:57.329Z,19.90
2018-01-25T13:22:25.715Z,19.90
2018-01-25T13:24:54.157Z,19.70
2018-01-25T13:27:23.293Z,19.40
2018-01-25T13:29:51.690Z,19.40
2018-01-25T13:32:20.067Z,19.40
2018-01-25T13:34:48.471Z,19.50
2018-01-25T13:37:17.606Z,19.50
2018-01-25T13:39:45.973Z,19.50
2018-01-25T13:42:14.479Z,19.60
2018-01-25T13:44:42.858Z,19.50
2018-01-25T13:47:11.490Z,19.40
2018-01-25T13:49:40.640Z,19.00
2018-01-25T13:52:09.958Z,18.90
2018-01-25T13:54:38.413Z,18.60
2018-01-25T13:57:06.769Z,18.40
2018-01-25T13:59:35.166Z,18.20
2018-01-25T14:02:03.549Z,18.00
2018-01-25T14:04:31.992Z,17.80
2018-01-25T14:07:00.397Z,17.70
2018-01-25T14:09:28.817Z,17.50
2018-01-25T14:11:57.199Z,17.30
2018-01-25T14:14:25.638Z,17.10
2018-01-25T14:16:54.013Z,17.00
2018-01-25T14:19:22.499Z,16.80
2018-01-25T14:21:50.900Z,16.60
2018-01-25T14:24:19.336Z,16.50
2018-01-25T14:26:48.659Z,16.20
2018-01-25T14:29:17.037Z,16.10
2018-01-25T14:31:45.522Z,16.10
2018-01-25T14:34:13.921Z,15.90
2018-01-25T14:36:42.322Z,15.80
2018-01-25T14:39:10.709Z,15.70
2018-01-25T14:41:39.894Z,15.60
2018-01-25T14:44:09.361Z,15.50
2018-01-25T14:46:37.741Z,15.40
2018-01-25T14:49:06.110Z,15.40
2018-01-25T14:51:34.502Z,15.30
2018-01-25T14:54:02.877Z,15.10
2018-01-25T14:56:31.272Z,15.00
2018-01-25T14:58:59.754Z,14.90
2018-01-25T15:01:28.214Z,14.80
2018-01-25T15:03:56.577Z,14.70
2018-01-25T15:06:24.946Z,14.60
2018-01-25T15:08:53.381Z,14.60
2018-01-25T15:11:21.750Z,14.50
2018-01-25T15:13:50.141Z,14.40
2018-01-25T15:16:18.513Z,14.30
2018-01-25T15:18:47.281Z,14.20
2018-01-25T15:21:15.731Z,14.20
2018-01-25T15:23:44.214Z,14.10
2018-01-25T15:26:12.629Z,14.00
2018-01-25T15:28:41.162Z,13.90
2018-01-25T15:31:09.580Z,13.80
2018-01-25T15:33:38.193Z,13.70
2018-01-25T15:36:06.883Z,13.60
2018-01-25T15:38:35.507Z,13.50
2018-01-25T15:41:04.166Z,13.40
2018-01-25T15:43:34.432Z,13.30
2018-01-25T15:46:03.629Z,13.20
2018-01-25T15:48:32.769Z,13.20
2018-01-25T15:51:01.699Z,13.10
2018-01-25T15:53:30.919Z,13.00
2018-01-25T15:56:00.497Z,13.00
2018-01-25T15:58:31.027Z,13.00
2018-01-25T16:00:59.866Z,12.90
2018-01-25T16:03:29.102Z,12.70
2018-01-25T16:05:58.360Z,12.70
2018-01-25T16:08:27.132Z,12.60
2018-01-25T16:10:55.898Z,12.50
2018-01-25T16:13:25.147Z,12.40
2018-01-25T16:15:54.479Z,12.40
2018-01-25T16:18:24.102Z,12.30
2018-01-25T16:20:52.900Z,12.30
2018-01-25T16:23:21.695Z,12.20
2018-01-25T16:25:50.176Z,12.10
2018-01-25T16:28:29.798Z,12.10
2018-01-25T16:30:58.240Z,12.00
2018-01-25T16:33:27.417Z,12.00
2018-01-25T16:35:55.789Z,11.90
2018-01-25T16:38:24.457Z,11.90
2018-01-25T16:40:52.894Z,11.90
2018-01-25T16:43:25.575Z,11.80
2018-01-25T16:45:55.550Z,11.80
2018-01-25T16:48:23.993Z,11.80
2018-01-25T16:50:54.333Z,11.70
2018-01-25T16:53:23.054Z,11.70
2018-01-25T16:55:52.663Z,11.50
2018-01-25T16:58:22.434Z,11.50
2018-01-25T17:00:50.818Z,11.40
2018-01-25T17:03:20.017Z,11.30
2018-01-25T17:05:48.659Z,11.20
2018-01-25T17:08:18.328Z,11.10
2018-01-25T17:10:47.974Z,11.00
2018-01-25T17:13:18.098Z,11.00
2018-01-25T17:15:47.335Z,11.00
2018-01-25T17:18:16.771Z,10.80
2018-01-25T17:20:45.254Z,10.80
2018-01-25T17:23:14.755Z,10.80
2018-01-25T17:25:44.265Z,10.70
2018-01-25T17:28:12.685Z,10.70
2018-01-25T17:30:41.693Z,10.70
2018-01-25T17:33:10.283Z,10.60
2018-01-25T17:35:39.061Z,10.60
2018-01-25T17:38:07.492Z,10.50
2018-01-25T17:40:36.096Z,10.50
2018-01-25T17:43:04.618Z,10.40
2018-01-25T17:45:33.058Z,10.40
2018-01-25T17:48:02.258Z,10.30
2018-01-25T17:50:30.636Z,10.30
2018-01-25T17:52:59.650Z,10.20
2018-01-25T17:55:28.301Z,10.20
2018-01-25T17:57:58.292Z,10.20
2018-01-25T18:00:27.537Z,10.00
2018-01-25T18:02:55.913Z,10.00
2018-01-25T18:05:24.613Z,9.90
2018-01-25T18:07:54.667Z,9.90
2018-01-25T18:10:23.935Z,9.80
2018-01-25T18:12:52.735Z,9.80
2018-01-25T18:15:21.665Z,9.70
2018-01-25T18:17:50.790Z,9.60
2018-01-25T18:20:19.736Z,9.60
2018-01-25T18:22:50.677Z,9.50
2018-01-25T18:25:21.591Z,9.40
2018-01-25T18:27:50.834Z,9.40
2018-01-25T18:30:23.739Z,9.40
2018-01-25T18:32:53.151Z,9.30
2018-01-25T18:35:22.236Z,9.30
2018-01-25T18:37:52.757Z,9.30
2018-01-25T18:40:22.663Z,9.20
2018-01-25T18:42:51.765Z,9.10
2018-01-25T18:45:20.713Z,9.10
2018-01-25T18:47:49.949Z,9.00
2018-01-25T18:50:19.137Z,9.00
2018-01-25T18:52:48.086Z,8.90
2018-01-25T18:55:17.187Z,8.90
2018-01-25T18:57:47.253Z,9.00
2018-01-25T19:00:16.469Z,8.90
2018-01-25T19:02:45.589Z,8.70
2018-01-25T19:05:14.649Z,8.70
2018-01-25T19:07:43.833Z,8.70
2018-01-25T19:10:13.038Z,8.50
2018-01-25T19:12:43.231Z,8.50
2018-01-25T19:15:13.157Z,8.50
2018-01-25T19:17:43.538Z,8.40
2018-01-25T19:20:13.366Z,8.50
2018-01-25T19:22:42.227Z,8.40
2018-01-25T19:25:11.166Z,8.50
2018-01-25T19:27:40.976Z,8.60
2018-01-25T19:30:10.656Z,8.60
2018-01-25T19:32:39.903Z,8.60
2018-01-25T19:35:08.934Z,8.60
2018-01-25T19:37:37.848Z,8.60
2018-01-25T19:40:07.021Z,8.60
2018-01-25T19:42:36.833Z,8.60
2018-01-25T19:45:05.943Z,8.60
2018-01-25T19:47:35.090Z,8.60
2018-01-25T19:50:04.505Z,8.50
2018-01-25T19:52:35.330Z,8.50
2018-01-25T19:55:03.953Z,8.50
2018-01-25T19:57:32.754Z,8.40
2018-01-25T20:00:02.049Z,8.40
2018-01-25T20:02:31.017Z,8.40
2018-01-25T20:05:00.877Z,8.30
2018-01-25T20:07:30.608Z,8.30
2018-01-25T20:10:00.585Z,8.30
2018-01-25T20:12:30.191Z,8.40
2018-01-25T20:14:58.977Z,8.30
2018-01-25T20:17:28.518Z,8.40
2018-01-25T20:19:56.968Z,8.40
2018-01-25T20:22:27.688Z,8.40
2018-01-25T20:24:56.347Z,8.40
2018-01-25T20:27:25.476Z,8.40
2018-01-25T20:29:54.485Z,8.40
2018-01-25T20:32:23.887Z,8.40
2018-01-25T20:34:53.771Z,8.40
2018-01-25T20:37:22.577Z,8.40
2018-01-25T20:39:51.552Z,8.40
2018-01-25T20:42:21.068Z,8.40
2018-01-25T20:44:50.207Z,8.40
2018-01-25T20:47:19.025Z,8.40
2018-01-25T20:49:47.816Z,8.40
2018-01-25T20:52:16.345Z,8.30
2018-01-25T20:54:44.869Z,8.30
2018-01-25T20:57:14.050Z,8.30
2018-01-25T20:59:43.237Z,8.10
2018-01-25T21:02:13.012Z,8.00
2018-01-25T21:04:42.136Z,8.00
2018-01-25T21:07:12.029Z,7.90
2018-01-25T21:09:42.096Z,7.90
2018-01-25T21:12:11.433Z,7.90
2018-01-25T21:14:41.141Z,7.70
2018-01-25T21:17:10.354Z,7.70
2018-01-25T21:19:39.146Z,7.70
2018-01-25T21:22:07.518Z,7.70
2018-01-25T21:24:35.937Z,7.60
2018-01-25T21:27:04.435Z,7.60
2018-01-25T21:29:33.576Z,7.50
2018-01-25T21:32:03.388Z,7.50
2018-01-25T21:34:32.817Z,7.40
2018-01-25T21:37:02.059Z,7.40
2018-01-25T21:39:30.861Z,7.50
2018-01-25T21:42:00.487Z,7.50
2018-01-25T21:44:29.150Z,7.50
2018-01-25T21:46:57.678Z,7.50
2018-01-25T21:49:26.433Z,7.50
2018-01-25T21:51:54.942Z,7.50
2018-01-25T21:54:25.363Z,7.60
2018-01-25T21:56:56.277Z,7.60
2018-01-25T21:59:24.848Z,7.50
2018-01-25T22:01:53.281Z,7.50
2018-01-25T22:04:21.753Z,7.60
2018-01-25T22:06:50.202Z,7.60
2018-01-25T22:09:18.573Z,7.60
2018-01-25T22:11:46.976Z,7.70
2018-01-25T22:14:15.354Z,7.70
2018-01-25T22:16:43.778Z,7.70
2018-01-25T22:19:14.708Z,7.60
2018-01-25T22:21:44.495Z,7.50
2018-01-25T22:24:13.830Z,7.40
2018-01-25T22:26:42.958Z,7.40
2018-01-25T22:29:11.359Z,7.40
2018-01-25T22:31:40.169Z,7.40
2018-01-25T22:34:09.349Z,7.40
2018-01-25T22:36:37.908Z,7.40
2018-01-25T22:39:06.589Z,7.40
2018-01-25T22:41:35.551Z,7.30
2018-01-25T22:44:04.196Z,7.30
2018-01-25T22:46:32.652Z,7.10
2018-01-25T22:49:01.056Z,7.10
2018-01-25T22:51:29.524Z,7.00
2018-01-25T22:53:57.890Z,7.00
2018-01-25T22:56:26.452Z,7.00
2018-01-25T22:58:54.849Z,7.00
2018-01-25T23:01:23.235Z,6.90
2018-01-25T23:03:51.616Z,6.90
2018-01-25T23:06:20.014Z,6.90
2018-01-25T23:08:48.409Z,6.90
2018-01-25T23:11:16.776Z,7.00
2018-01-25T23:13:45.513Z,6.90
2018-01-25T23:16:13.885Z,6.90
2018-01-25T23:18:42.250Z,6.90
2018-01-25T23:21:11.588Z,6.80
2018-01-25T23:23:39.971Z,6.80
2018-01-25T23:26:08.356Z,6.80
2018-01-25T23:28:36.792Z,6.70
2018-01-25T23:31:05.605Z,6.80
2018-01-25T23:33:33.969Z,6.90
2018-01-25T23:36:02.380Z,7.00
2018-01-25T23:38:36.753Z,7.00
2018-01-25T23:41:06.296Z,7.10
2018-01-25T23:43:35.979Z,7.20
2018-01-25T23:46:04.366Z,7.20
2018-01-25T23:48:33.785Z,7.30
2018-01-25T23:51:02.191Z,7.30
2018-01-25T23:53:30.566Z,7.30
2018-01-25T23:55:59.022Z,7.30
2018-01-25T23:58:27.385Z,7.30
